Search for airport 
image banner adimage banner adimage banner ad
image banner ad

KDYL - Doylestown

Located in Doylestown, United States

ICAO - DYL, IATA - DYL

Data provided by Airmate  

General information

Coordinates: N40°19'59" W75°7'20"
Elevation is 394 feet MSL.
Magnetic variation is -12° East
View others Airports in Pennsylvania

Operational data

Special qualification required
Current time UTC:
Current local time:
Weather
METAR: KDYL 071254Z AUTO 03006KT 10SM CLR 14/00 A2991 RMK AO2 SLP129 T01390000
View NOTAMs / SUP AIP / TFR affecting this airport [VIEW]
Communications frequencies: [VIEW]

Runways:

RWY identifierQFULength (ft)Width (ft)SurfaceLDA (ft)
0537°300260ASPH
23217°300260ASPH

Airport contact information

Address: Doylestown United States

Other aviation service providers

Flight schools

Leading Edge Aviation, Inc.

Leading Edge Aviation, Inc.

Sky River Helicopters

Sky River Helicopters

Satellite view of KDYL